Strona główna
METAR-TAF:

METAR-TAF

Lotnisko :

Port lotniczy Torsby

Torsby, Szwecja

Szerokość geograficzna: 60-09-17N, Długość geograficzna: 12-59-40E, wysokość: 120 m

Aktualna obserwacja pogody

Raport powstał 35 minut temu, godzina 12:50 UTC
Wiatr 6 kt od południowo-południowy wschód, zmienny między wschodnio-południowy wschód i południe
Temperatura 24°C
Wilgotność 50%
Ciśnienie 1026 hPa
Widzialność 10 km lub więcej

METAR: ESST 111250Z AUTO 15006KT 120V180 9999 NCD 24/13 Q1026

czas: 15:25 (13:25 UTC)


TAF: brakujący

Obserwacja i prognoza pogody dla ponad 4000 lotnisk (raport METAR i TAF).

Dostępne stacje oznaczono żółtymi i czerwonymi punktami na mapie.

Najedź kursorem aby zobaczyć nazwę stacji.

Kliknij aby zobaczyć obserwacje i prognozy pogody.

Aby zmienić mapę: kliknij na zielony przycisk z czarnym krzyżykiem, aby powiększyć; na zielony przycisk z myślnikiem, aby pomniejszyć; na zielone strzałki, aby przejść do map sąsiednich.


METAR-TAF: